Portada
METAR-TAF:

METAR-TAF

Aeroports :

Johor Bahru, Malàisia

latitud: 01-38N, longitud: 103-40E, altitud: 37 m

Observació

L'informe es va fer fa 15 minuts, a les 17:00 UTC
Vent calma
Temperatura 25°C
Humitat 89%
Pressió 1010 hPa
Visibilitat 10 km o més
Escasses núvols a una alçada de 2300 ft

METAR: WMKJ 311700Z 00000KT 9999 FEW023 25/23 Q1010

Hora: 01:15 (17:15 UTC)

Pronòstic

L'informe es va fer fa 6 hores i 15 minuts, a les 11:00 UTC
Pronòstic vàlid del 31 a les 12 UTC al 01 a les 12 UTC
Vent 3 kt amb direcció variable
Visibilitat 10 km o més
Escasses núvols a una alçada de 2300 ft

TAF: WMKJ 311100Z 3112/0112 VRB03KT 9999 FEW023

Observacions i pronòstics meteorològics de més de 4000 aeroports (METAR i TAF).

Les estacions disponibles són els punts grocs i vermells al mapa.

Posi el ratolí al punt desitjat per veure el nom de l'estació.

Feu clic per veure les observacions i els pronòstics meteorològics.

Per canviar el mapa: feu clic els botons verds amb una creu de color negre per apropar; al botó verd amb un guió per allunyar la imatge; o en les fletxes verdes per a mapes adjacents.


METAR-TAF: